createdAt,value
2019-02-19T00:00:55.509Z,1006.47
2019-02-19T00:01:55.476Z,1006.44
2019-02-19T00:02:55.481Z,1006.49
2019-02-19T00:03:55.499Z,1006.48
2019-02-19T00:04:55.479Z,1006.49
2019-02-19T00:05:55.496Z,1006.46
2019-02-19T00:06:55.465Z,1006.47
2019-02-19T00:07:55.447Z,1006.48
2019-02-19T00:08:55.423Z,1006.46
2019-02-19T00:09:55.434Z,1006.49
2019-02-19T00:10:55.404Z,1006.50
2019-02-19T00:11:55.397Z,1006.49
2019-02-19T00:12:55.394Z,1006.49
2019-02-19T00:13:55.373Z,1006.50
2019-02-19T00:14:55.370Z,1006.50
2019-02-19T00:15:55.360Z,1006.48
2019-02-19T00:16:55.363Z,1006.48
2019-02-19T00:17:55.339Z,1006.53
2019-02-19T00:18:55.338Z,1006.48
2019-02-19T00:19:55.333Z,1006.49
2019-02-19T00:20:55.320Z,1006.50
2019-02-19T00:21:55.314Z,1006.49
2019-02-19T00:22:55.314Z,1006.50
2019-02-19T00:23:55.292Z,1006.48
2019-02-19T00:24:55.285Z,1006.49
2019-02-19T00:25:55.273Z,1006.45
2019-02-19T00:26:55.269Z,1006.46
2019-02-19T00:27:55.283Z,1006.48
2019-02-19T00:28:55.242Z,1006.44
2019-02-19T00:29:55.298Z,1006.47
2019-02-19T00:30:55.237Z,1006.44
2019-02-19T00:31:55.260Z,1006.47
2019-02-19T00:32:55.223Z,1006.50
2019-02-19T00:33:55.196Z,1006.45
2019-02-19T00:34:55.203Z,1006.49
2019-02-19T00:35:55.206Z,1006.48
2019-02-19T00:36:55.173Z,1006.45
2019-02-19T00:37:55.167Z,1006.46
2019-02-19T00:38:55.174Z,1006.47
2019-02-19T00:39:55.195Z,1006.48
2019-02-19T00:40:55.143Z,1006.50
2019-02-19T00:41:55.153Z,1006.53
2019-02-19T00:42:55.120Z,1006.51
2019-02-19T00:43:55.156Z,1006.51
2019-02-19T00:44:55.138Z,1006.52
2019-02-19T00:45:55.161Z,1006.51
2019-02-19T00:46:55.125Z,1006.52
2019-02-19T00:47:55.118Z,1006.55
2019-02-19T00:48:55.087Z,1006.51
2019-02-19T00:49:55.051Z,1006.47
2019-02-19T00:50:55.098Z,1006.44
2019-02-19T00:51:55.049Z,1006.42
2019-02-19T00:52:55.065Z,1006.45
2019-02-19T00:53:55.015Z,1006.40
2019-02-19T00:54:55.006Z,1006.41
2019-02-19T00:55:54.993Z,1006.42
2019-02-19T00:56:55.003Z,1006.39
2019-02-19T00:57:56.244Z,1006.43
2019-02-19T00:58:54.962Z,1006.43
2019-02-19T00:59:54.953Z,1006.44
2019-02-19T01:00:54.965Z,1006.45
2019-02-19T01:01:54.941Z,1006.44
2019-02-19T01:02:54.930Z,1006.44
2019-02-19T01:03:54.942Z,1006.48
2019-02-19T01:04:54.944Z,1006.48
2019-02-19T01:05:54.901Z,1006.51
2019-02-19T01:06:54.892Z,1006.47
2019-02-19T01:07:54.882Z,1006.50
2019-02-19T01:08:54.874Z,1006.46
2019-02-19T01:09:54.873Z,1006.49
2019-02-19T01:10:54.856Z,1006.47
2019-02-19T01:11:54.845Z,1006.53
2019-02-19T01:12:54.843Z,1006.53
2019-02-19T01:13:54.825Z,1006.50
2019-02-19T01:14:54.813Z,1006.50
2019-02-19T01:15:54.806Z,1006.52
2019-02-19T01:16:54.816Z,1006.52
2019-02-19T01:17:54.816Z,1006.52
2019-02-19T01:18:54.775Z,1006.49
2019-02-19T01:19:54.776Z,1006.50
2019-02-19T01:20:54.767Z,1006.49
2019-02-19T01:21:54.751Z,1006.49
2019-02-19T01:22:54.761Z,1006.49
2019-02-19T01:23:54.734Z,1006.50
2019-02-19T01:24:54.722Z,1006.47
2019-02-19T01:25:54.721Z,1006.45
2019-02-19T01:26:54.734Z,1006.42
2019-02-19T01:27:54.724Z,1006.40
2019-02-19T01:28:54.716Z,1006.41
2019-02-19T01:29:54.697Z,1006.40
2019-02-19T01:30:54.663Z,1006.40
2019-02-19T01:31:54.665Z,1006.37
2019-02-19T01:32:54.658Z,1006.40
2019-02-19T01:33:54.648Z,1006.38
2019-02-19T01:34:54.629Z,1006.35
2019-02-19T01:35:54.628Z,1006.36
2019-02-19T01:36:54.615Z,1006.39
2019-02-19T01:37:54.603Z,1006.39
2019-02-19T01:38:54.603Z,1006.41
2019-02-19T01:39:54.600Z,1006.42
2019-02-19T01:40:54.584Z,1006.38
2019-02-19T01:41:54.572Z,1006.42
2019-02-19T01:42:54.549Z,1006.39
2019-02-19T01:43:54.567Z,1006.39
2019-02-19T01:44:54.567Z,1006.41
2019-02-19T01:45:54.528Z,1006.38
2019-02-19T01:46:54.532Z,1006.42
2019-02-19T01:47:54.526Z,1006.36
2019-02-19T01:48:54.538Z,1006.37
2019-02-19T01:49:54.569Z,1006.37
2019-02-19T01:50:54.480Z,1006.42
2019-02-19T01:51:54.511Z,1006.38
2019-02-19T01:52:54.484Z,1006.38
2019-02-19T01:53:54.450Z,1006.39
2019-02-19T01:54:54.478Z,1006.40
2019-02-19T01:55:54.456Z,1006.44
2019-02-19T01:56:54.445Z,1006.41
2019-02-19T01:57:54.418Z,1006.40
2019-02-19T01:58:54.416Z,1006.40
2019-02-19T01:59:54.404Z,1006.38
2019-02-19T02:00:54.382Z,1006.38
2019-02-19T02:01:54.391Z,1006.35
2019-02-19T02:02:54.383Z,1006.37
2019-02-19T02:03:54.362Z,1006.35
2019-02-19T02:04:54.349Z,1006.32
2019-02-19T02:05:54.348Z,1006.28
2019-02-19T02:06:54.353Z,1006.29
2019-02-19T02:07:54.325Z,1006.28
2019-02-19T02:08:54.313Z,1006.30
2019-02-19T02:09:54.308Z,1006.28
2019-02-19T02:10:54.290Z,1006.23
2019-02-19T02:11:54.281Z,1006.23
2019-02-19T02:12:54.296Z,1006.25
2019-02-19T02:13:54.264Z,1006.22
2019-02-19T02:14:54.258Z,1006.17
2019-02-19T02:15:54.251Z,1006.18
2019-02-19T02:16:54.235Z,1006.20
2019-02-19T02:17:54.256Z,1006.15
2019-02-19T02:18:54.253Z,1006.22
2019-02-19T02:19:54.237Z,1006.23
2019-02-19T02:20:54.229Z,1006.20
2019-02-19T02:21:54.183Z,1006.19
2019-02-19T02:22:54.191Z,1006.21
2019-02-19T02:23:54.202Z,1006.20
2019-02-19T02:24:54.168Z,1006.23
2019-02-19T02:25:54.175Z,1006.25
2019-02-19T02:26:54.137Z,1006.22
2019-02-19T02:27:54.171Z,1006.24
2019-02-19T02:28:54.143Z,1006.23
2019-02-19T02:29:54.114Z,1006.22
2019-02-19T02:30:54.132Z,1006.22
2019-02-19T02:31:54.117Z,1006.19
2019-02-19T02:32:54.105Z,1006.16
2019-02-19T02:33:54.074Z,1006.18
2019-02-19T02:34:54.077Z,1006.14
2019-02-19T02:35:54.083Z,1006.18
2019-02-19T02:36:54.081Z,1006.18
2019-02-19T02:38:02.687Z,1006.18
2019-02-19T02:39:58.531Z,1006.17
2019-02-19T02:40:58.485Z,1006.20
2019-02-19T02:41:58.479Z,1006.20
2019-02-19T02:42:58.479Z,1006.19
2019-02-19T02:43:58.460Z,1006.18
2019-02-19T02:44:58.456Z,1006.21
2019-02-19T02:45:58.455Z,1006.20
2019-02-19T02:46:58.460Z,1006.19
2019-02-19T02:47:58.438Z,1006.23
2019-02-19T02:48:58.418Z,1006.21
2019-02-19T02:49:58.426Z,1006.24
2019-02-19T02:50:58.388Z,1006.26
2019-02-19T02:51:58.393Z,1006.21
2019-02-19T02:52:58.432Z,1006.23
2019-02-19T02:53:58.382Z,1006.22
2019-02-19T02:54:58.369Z,1006.26
2019-02-19T02:55:58.358Z,1006.23
2019-02-19T03:13:33.986Z,1006.19
2019-02-19T03:14:33.940Z,1006.18
2019-02-19T03:15:33.938Z,1006.21
2019-02-19T03:16:33.940Z,1006.23
2019-02-19T03:17:33.905Z,1006.22
2019-02-19T03:18:33.895Z,1006.25
2019-02-19T03:19:33.890Z,1006.22
2019-02-19T03:20:33.882Z,1006.22
2019-02-19T03:21:33.853Z,1006.22
2019-02-19T03:22:33.861Z,1006.22
2019-02-19T03:23:33.836Z,1006.19
2019-02-19T03:24:33.827Z,1006.20
2019-02-19T03:25:33.801Z,1006.20
2019-02-19T03:26:33.795Z,1006.23
2019-02-19T03:27:33.793Z,1006.21
2019-02-19T03:28:33.755Z,1006.20
2019-02-19T03:29:33.743Z,1006.22
2019-02-19T03:30:33.738Z,1006.22
2019-02-19T03:31:33.735Z,1006.19
2019-02-19T03:32:33.717Z,1006.22
2019-02-19T03:33:33.721Z,1006.22
2019-02-19T03:34:33.696Z,1006.24
2019-02-19T03:35:33.705Z,1006.22
2019-02-19T03:36:33.696Z,1006.22
2019-02-19T03:37:33.673Z,1006.22
2019-02-19T03:38:33.642Z,1006.20
2019-02-19T03:39:33.625Z,1006.23
2019-02-19T03:40:33.619Z,1006.22
2019-02-19T03:41:33.626Z,1006.25
2019-02-19T03:42:33.634Z,1006.27
2019-02-19T03:43:33.617Z,1006.28
2019-02-19T03:44:33.586Z,1006.29
2019-02-19T03:45:33.590Z,1006.30
2019-02-19T03:46:33.555Z,1006.38
2019-02-19T03:47:33.565Z,1006.34
2019-02-19T03:48:33.556Z,1006.41
2019-02-19T03:49:33.525Z,1006.42
2019-02-19T03:50:33.513Z,1006.36
2019-02-19T03:51:33.502Z,1006.40
2019-02-19T03:52:33.519Z,1006.40
2019-02-19T03:53:33.527Z,1006.40
2019-02-19T03:54:33.498Z,1006.35
2019-02-19T03:55:33.470Z,1006.34
2019-02-19T03:56:33.442Z,1006.34
2019-02-19T03:57:33.448Z,1006.35
2019-02-19T03:58:33.434Z,1006.38
2019-02-19T03:59:33.450Z,1006.38
2019-02-19T04:00:33.427Z,1006.38
2019-02-19T04:01:33.394Z,1006.36
2019-02-19T04:02:33.381Z,1006.39
2019-02-19T04:03:33.396Z,1006.37
2019-02-19T04:04:33.369Z,1006.36
2019-02-19T04:05:33.366Z,1006.38
2019-02-19T04:06:33.363Z,1006.39
2019-02-19T04:07:33.328Z,1006.40
2019-02-19T04:08:33.338Z,1006.41
2019-02-19T04:09:33.308Z,1006.41
2019-02-19T04:10:33.309Z,1006.43
2019-02-19T04:11:33.319Z,1006.42
2019-02-19T04:12:33.272Z,1006.40
2019-02-19T04:13:33.265Z,1006.42
2019-02-19T04:14:33.273Z,1006.45
2019-02-19T04:15:33.248Z,1006.47
2019-02-19T04:16:33.235Z,1006.51
2019-02-19T04:17:33.256Z,1006.51
2019-02-19T04:18:33.212Z,1006.51
2019-02-19T04:19:33.218Z,1006.51
2019-02-19T04:20:33.224Z,1006.52
2019-02-19T04:21:33.201Z,1006.51
2019-02-19T04:22:33.196Z,1006.54
2019-02-19T04:23:33.183Z,1006.45
2019-02-19T04:24:33.195Z,1006.54
2019-02-19T04:25:33.158Z,1006.51
2019-02-19T04:26:33.137Z,1006.47
2019-02-19T04:27:33.134Z,1006.53
2019-02-19T04:28:33.145Z,1006.51
2019-02-19T04:29:33.132Z,1006.52
2019-02-19T04:30:33.140Z,1006.50
2019-02-19T04:31:33.125Z,1006.50
2019-02-19T04:32:33.089Z,1006.51
2019-02-19T04:33:33.076Z,1006.47
2019-02-19T04:34:33.075Z,1006.49
2019-02-19T04:35:41.703Z,1006.42
2019-02-19T04:37:37.554Z,1006.47
2019-02-19T04:38:37.548Z,1006.48
2019-02-19T04:39:37.521Z,1006.50
2019-02-19T04:40:37.484Z,1006.49
2019-02-19T04:41:37.445Z,1006.44
2019-02-19T04:42:37.460Z,1006.50
2019-02-19T04:43:37.456Z,1006.47
2019-02-19T04:44:37.415Z,1006.48
2019-02-19T04:45:37.419Z,1006.52
2019-02-19T04:46:37.450Z,1006.47
2019-02-19T04:47:37.402Z,1006.55
2019-02-19T04:48:37.399Z,1006.51
2019-02-19T04:49:37.366Z,1006.52
2019-02-19T04:50:37.394Z,1006.46
2019-02-19T04:51:37.345Z,1006.47
2019-02-19T04:52:37.336Z,1006.41
2019-02-19T04:53:37.333Z,1006.42
2019-02-19T04:54:37.327Z,1006.43
2019-02-19T04:55:37.313Z,1006.40
2019-02-19T04:56:37.298Z,1006.38
2019-02-19T04:57:37.312Z,1006.36
2019-02-19T04:58:37.264Z,1006.39
2019-02-19T04:59:37.266Z,1006.41
2019-02-19T05:00:37.251Z,1006.38
2019-02-19T05:01:37.242Z,1006.42
2019-02-19T05:02:37.260Z,1006.42
2019-02-19T05:03:37.232Z,1006.37
2019-02-19T05:04:37.200Z,1006.42
2019-02-19T05:05:37.211Z,1006.43
2019-02-19T05:06:37.193Z,1006.43
2019-02-19T05:07:37.173Z,1006.42
2019-02-19T05:08:37.185Z,1006.45
2019-02-19T05:09:37.149Z,1006.43
2019-02-19T05:10:37.139Z,1006.41
2019-02-19T05:11:37.156Z,1006.43
2019-02-19T05:12:37.111Z,1006.43
2019-02-19T05:13:37.115Z,1006.47
2019-02-19T05:14:37.126Z,1006.50
2019-02-19T05:15:37.088Z,1006.50
2019-02-19T05:16:40.737Z,1006.52
2019-02-19T05:17:37.078Z,1006.53
2019-02-19T05:18:37.052Z,1006.51
2019-02-19T05:19:37.063Z,1006.54
2019-02-19T05:20:37.055Z,1006.53
2019-02-19T05:21:37.013Z,1006.47
2019-02-19T05:22:37.014Z,1006.51
2019-02-19T05:23:37.020Z,1006.53
2019-02-19T05:24:37.009Z,1006.52
2019-02-19T05:25:36.983Z,1006.51
2019-02-19T05:26:36.997Z,1006.49
2019-02-19T05:27:36.954Z,1006.48
2019-02-19T05:28:36.936Z,1006.47
2019-02-19T05:29:36.929Z,1006.49
2019-02-19T05:30:36.944Z,1006.51
2019-02-19T05:31:36.938Z,1006.51
2019-02-19T05:32:36.920Z,1006.49
2019-02-19T05:33:36.892Z,1006.50
2019-02-19T05:34:36.880Z,1006.51
2019-02-19T05:35:36.868Z,1006.53
2019-02-19T05:36:36.867Z,1006.55
2019-02-19T05:37:36.897Z,1006.51
2019-02-19T05:38:36.827Z,1006.51
2019-02-19T05:39:36.817Z,1006.52
2019-02-19T05:40:36.806Z,1006.47
2019-02-19T05:41:36.828Z,1006.55
2019-02-19T05:42:36.795Z,1006.52
2019-02-19T05:43:36.826Z,1006.49
2019-02-19T05:44:36.770Z,1006.55
2019-02-19T05:45:36.765Z,1006.49
2019-02-19T05:46:36.747Z,1006.52
2019-02-19T05:47:36.747Z,1006.53
2019-02-19T05:48:36.730Z,1006.58
2019-02-19T05:49:36.737Z,1006.56
2019-02-19T05:50:36.692Z,1006.53
2019-02-19T05:51:36.684Z,1006.59
2019-02-19T05:52:36.681Z,1006.60
2019-02-19T05:53:36.681Z,1006.57
2019-02-19T05:54:36.672Z,1006.60
2019-02-19T05:55:36.646Z,1006.60
2019-02-19T05:56:36.639Z,1006.62
2019-02-19T05:57:36.659Z,1006.61
2019-02-19T05:58:36.636Z,1006.61
2019-02-19T05:59:36.639Z,1006.64
2019-02-19T06:00:36.632Z,1006.67
2019-02-19T06:01:36.589Z,1006.72
2019-02-19T06:02:36.604Z,1006.74
2019-02-19T06:03:36.563Z,1006.75
2019-02-19T06:04:36.685Z,1006.74
2019-02-19T06:05:36.551Z,1006.80
2019-02-19T06:06:36.529Z,1006.81
2019-02-19T06:07:36.522Z,1006.82
2019-02-19T06:08:36.533Z,1006.83
2019-02-19T06:09:36.484Z,1006.82
2019-02-19T06:10:36.510Z,1006.84
2019-02-19T06:11:36.526Z,1006.86
2019-02-19T06:12:36.529Z,1006.86
2019-02-19T06:13:36.436Z,1006.82
2019-02-19T06:14:36.432Z,1006.85
2019-02-19T06:15:36.408Z,1006.82
2019-02-19T06:16:36.404Z,1006.85
2019-02-19T06:17:36.389Z,1006.85
2019-02-19T06:18:36.380Z,1006.88
2019-02-19T06:19:36.369Z,1006.93
2019-02-19T06:20:36.402Z,1006.91
2019-02-19T06:21:36.373Z,1006.96
2019-02-19T06:22:36.367Z,1006.95
2019-02-19T06:23:36.383Z,1006.94
2019-02-19T06:24:36.345Z,1006.90
2019-02-19T06:25:36.338Z,1006.92
2019-02-19T06:26:36.307Z,1006.91
2019-02-19T06:27:36.332Z,1006.92
2019-02-19T06:28:36.265Z,1006.95
2019-02-19T06:29:36.251Z,1006.98
2019-02-19T06:30:36.242Z,1006.93
2019-02-19T06:31:36.243Z,1006.96
2019-02-19T06:32:36.258Z,1006.95
2019-02-19T06:33:36.244Z,1007.00
2019-02-19T06:34:36.204Z,1006.98
2019-02-19T06:35:36.184Z,1007.01
2019-02-19T06:36:36.189Z,1007.00
2019-02-19T06:37:36.173Z,1007.03
2019-02-19T06:38:36.157Z,1007.07
2019-02-19T06:39:36.148Z,1007.12
2019-02-19T06:40:36.131Z,1007.11
2019-02-19T06:41:36.126Z,1007.16
2019-02-19T06:42:36.116Z,1007.20
2019-02-19T06:43:36.113Z,1007.21
2019-02-19T06:44:36.087Z,1007.27
2019-02-19T06:45:36.067Z,1007.26
2019-02-19T06:46:36.062Z,1007.28
2019-02-19T06:47:36.054Z,1007.25
2019-02-19T06:48:36.058Z,1007.25
2019-02-19T06:49:36.023Z,1007.27
2019-02-19T06:50:36.053Z,1007.25
2019-02-19T06:51:35.999Z,1007.21
2019-02-19T06:52:36.004Z,1007.23
2019-02-19T06:53:35.979Z,1007.18
2019-02-19T06:54:35.961Z,1007.22
2019-02-19T06:55:35.965Z,1007.19
2019-02-19T06:56:35.945Z,1007.20
2019-02-19T06:57:44.638Z,1007.23
2019-02-19T06:59:40.406Z,1007.25
2019-02-19T07:00:49.868Z,1007.28
2019-02-19T07:02:44.859Z,1007.32
2019-02-19T07:03:44.830Z,1007.31
2019-02-19T07:04:44.847Z,1007.29
2019-02-19T07:05:44.816Z,1007.23
2019-02-19T07:06:44.804Z,1007.21
2019-02-19T07:07:44.801Z,1007.23
2019-02-19T07:08:44.785Z,1007.18
2019-02-19T07:09:44.790Z,1007.21
2019-02-19T07:10:44.771Z,1007.17
2019-02-19T07:11:44.740Z,1007.16
2019-02-19T07:12:44.742Z,1007.19
2019-02-19T07:13:44.719Z,1007.24
2019-02-19T07:14:44.710Z,1007.21
2019-02-19T07:15:44.722Z,1007.20
2019-02-19T07:16:44.715Z,1007.20
2019-02-19T07:17:44.666Z,1007.21
2019-02-19T07:18:44.660Z,1007.26
2019-02-19T07:19:44.666Z,1007.28
2019-02-19T07:20:44.648Z,1007.27
2019-02-19T07:21:44.641Z,1007.26
2019-02-19T07:22:44.619Z,1007.27
2019-02-19T07:23:44.614Z,1007.36
2019-02-19T07:24:44.605Z,1007.35
2019-02-19T07:25:44.580Z,1007.37
2019-02-19T07:26:44.606Z,1007.36
2019-02-19T07:27:44.578Z,1007.36
2019-02-19T07:28:44.554Z,1007.36
2019-02-19T07:29:44.541Z,1007.40
2019-02-19T07:30:44.533Z,1007.41
2019-02-19T07:31:44.518Z,1007.41
2019-02-19T07:32:44.523Z,1007.45
2019-02-19T07:33:44.508Z,1007.41
2019-02-19T07:34:44.504Z,1007.42
2019-02-19T07:35:44.529Z,1007.42
2019-02-19T07:36:44.479Z,1007.42
2019-02-19T07:37:44.471Z,1007.42
2019-02-19T07:38:44.453Z,1007.43
2019-02-19T07:39:44.514Z,1007.40
2019-02-19T07:40:44.557Z,1007.42
2019-02-19T07:41:44.423Z,1007.44
2019-02-19T07:42:44.446Z,1007.44
2019-02-19T07:43:44.482Z,1007.40
2019-02-19T07:44:45.320Z,1007.49
2019-02-19T07:45:44.415Z,1007.52
2019-02-19T07:46:44.391Z,1007.51
2019-02-19T07:47:44.359Z,1007.53
2019-02-19T07:48:44.362Z,1007.53
2019-02-19T07:49:44.371Z,1007.53
2019-02-19T07:50:44.326Z,1007.55
2019-02-19T07:51:44.347Z,1007.57
2019-02-19T07:52:44.398Z,1007.58
2019-02-19T07:53:44.295Z,1007.61
2019-02-19T07:54:44.289Z,1007.63
2019-02-19T07:55:44.318Z,1007.63
2019-02-19T07:56:44.291Z,1007.63
2019-02-19T07:57:44.367Z,1007.62
2019-02-19T07:58:44.276Z,1007.65
2019-02-19T07:59:44.310Z,1007.71
2019-02-19T08:00:44.293Z,1007.70
2019-02-19T08:01:44.217Z,1007.65
2019-02-19T08:02:44.214Z,1007.66
2019-02-19T08:03:44.252Z,1007.71
2019-02-19T08:04:44.216Z,1007.73
2019-02-19T08:05:44.186Z,1007.73
2019-02-19T08:06:44.179Z,1007.75
2019-02-19T08:07:44.190Z,1007.77
2019-02-19T08:08:44.150Z,1007.78
2019-02-19T08:09:44.148Z,1007.77
2019-02-19T08:10:44.152Z,1007.80
2019-02-19T08:11:44.124Z,1007.82
2019-02-19T08:12:44.116Z,1007.82
2019-02-19T08:13:44.135Z,1007.86
2019-02-19T08:14:44.097Z,1007.82
2019-02-19T08:15:44.091Z,1007.87
2019-02-19T08:16:44.076Z,1007.88
2019-02-19T08:17:44.079Z,1007.89
2019-02-19T08:18:44.070Z,1007.90
2019-02-19T08:19:44.083Z,1007.91
2019-02-19T08:20:44.051Z,1007.92
2019-02-19T08:21:44.046Z,1007.87
2019-02-19T08:22:44.031Z,1007.91
2019-02-19T08:23:44.020Z,1007.94
2019-02-19T08:24:44.004Z,1007.90
2019-02-19T08:25:44.002Z,1007.93
2019-02-19T08:26:44.006Z,1007.99
2019-02-19T08:27:43.995Z,1008.01
2019-02-19T08:28:44.008Z,1008.05
2019-02-19T08:29:43.963Z,1008.11
2019-02-19T08:30:43.948Z,1008.10
2019-02-19T08:31:43.937Z,1008.19
2019-02-19T08:32:43.931Z,1008.13
2019-02-19T08:33:43.953Z,1008.15
2019-02-19T08:34:43.949Z,1008.20
2019-02-19T08:35:43.939Z,1008.22
2019-02-19T08:36:43.902Z,1008.22
2019-02-19T08:37:43.901Z,1008.19
2019-02-19T08:38:43.913Z,1008.17
2019-02-19T08:39:43.881Z,1008.22
2019-02-19T08:40:43.901Z,1008.22
2019-02-19T08:41:43.843Z,1008.20
2019-02-19T08:42:43.839Z,1008.24
2019-02-19T08:43:43.831Z,1008.20
2019-02-19T08:44:43.824Z,1008.23
2019-02-19T08:45:43.828Z,1008.29
2019-02-19T08:46:43.816Z,1008.30
2019-02-19T08:47:43.791Z,1008.30
2019-02-19T08:48:43.784Z,1008.34
2019-02-19T08:49:43.781Z,1008.36
2019-02-19T08:50:43.769Z,1008.37
2019-02-19T08:51:43.758Z,1008.43
2019-02-19T08:52:43.770Z,1008.38
2019-02-19T08:53:43.755Z,1008.40
2019-02-19T08:54:43.729Z,1008.45
2019-02-19T08:55:43.723Z,1008.39
2019-02-19T08:56:43.728Z,1008.39
2019-02-19T08:57:43.707Z,1008.42
2019-02-19T08:58:43.713Z,1008.44
2019-02-19T08:59:43.697Z,1008.43
2019-02-19T09:00:43.698Z,1008.47
2019-02-19T09:01:43.689Z,1008.46
2019-02-19T09:02:43.665Z,1008.46
2019-02-19T09:03:43.663Z,1008.49
2019-02-19T09:04:43.648Z,1008.52
2019-02-19T09:05:43.650Z,1008.52
2019-02-19T09:06:43.665Z,1008.56
2019-02-19T09:07:43.639Z,1008.57
2019-02-19T09:08:43.615Z,1008.55
2019-02-19T09:09:43.599Z,1008.59
2019-02-19T09:10:43.607Z,1008.57
2019-02-19T09:11:43.591Z,1008.59
2019-02-19T09:12:43.601Z,1008.61
2019-02-19T09:13:43.585Z,1008.63
2019-02-19T09:14:43.603Z,1008.60
2019-02-19T09:15:43.541Z,1008.61
2019-02-19T09:16:43.572Z,1008.63
2019-02-19T09:17:51.601Z,1008.65
2019-02-19T09:18:43.561Z,1008.67
2019-02-19T09:19:43.520Z,1008.71
2019-02-19T09:20:43.501Z,1008.72
2019-02-19T09:21:43.507Z,1008.77
2019-02-19T09:22:43.482Z,1008.73
2019-02-19T09:23:43.474Z,1008.76
2019-02-19T09:24:43.477Z,1008.79
2019-02-19T09:25:43.475Z,1008.79
2019-02-19T09:26:43.475Z,1008.80
2019-02-19T09:27:43.456Z,1008.83
2019-02-19T09:28:43.447Z,1008.82
2019-02-19T09:29:43.445Z,1008.80
2019-02-19T09:30:43.438Z,1008.83
2019-02-19T09:31:43.426Z,1008.83
2019-02-19T09:32:43.407Z,1008.84
2019-02-19T09:33:43.421Z,1008.82
2019-02-19T09:34:43.377Z,1008.87
2019-02-19T09:35:43.395Z,1008.90
2019-02-19T09:36:43.389Z,1008.93
2019-02-19T09:37:43.408Z,1008.98
2019-02-19T09:38:43.383Z,1008.99
2019-02-19T09:39:43.353Z,1008.99
2019-02-19T09:40:43.334Z,1008.97
2019-02-19T09:41:43.327Z,1008.98
2019-02-19T09:42:43.329Z,1009.02
2019-02-19T09:43:43.308Z,1009.02
2019-02-19T09:44:43.326Z,1009.00
2019-02-19T09:45:43.291Z,1009.03
2019-02-19T09:46:43.324Z,1008.99
2019-02-19T09:47:43.277Z,1008.99
2019-02-19T09:48:43.271Z,1009.01
2019-02-19T09:49:43.282Z,1009.03
2019-02-19T09:50:43.264Z,1009.07
2019-02-19T09:51:43.266Z,1009.05
2019-02-19T09:52:43.289Z,1009.07
2019-02-19T09:53:43.264Z,1009.09
2019-02-19T09:54:43.220Z,1009.04
2019-02-19T09:55:43.860Z,1009.04
2019-02-19T09:56:43.209Z,1009.02
2019-02-19T09:57:43.214Z,1009.03
2019-02-19T09:58:43.189Z,1009.03
2019-02-19T09:59:43.179Z,1009.11
2019-02-19T10:00:43.227Z,1009.08
2019-02-19T10:01:43.181Z,1009.02
2019-02-19T10:02:43.961Z,1009.07
2019-02-19T10:03:43.165Z,1009.04
2019-02-19T10:04:43.149Z,1009.06
2019-02-19T10:05:43.139Z,1009.09
2019-02-19T10:06:43.153Z,1009.15
2019-02-19T10:07:43.121Z,1009.03
2019-02-19T10:08:43.165Z,1009.13
2019-02-19T10:09:43.116Z,1009.08
2019-02-19T10:10:43.102Z,1009.16
2019-02-19T10:11:43.120Z,1009.13
2019-02-19T10:12:43.092Z,1009.14
2019-02-19T10:13:43.112Z,1009.15
2019-02-19T10:14:43.077Z,1009.17
2019-02-19T10:15:43.103Z,1009.17
2019-02-19T10:16:43.063Z,1009.17
2019-02-19T10:17:43.066Z,1009.22
2019-02-19T10:18:43.070Z,1009.24
2019-02-19T10:19:43.219Z,1009.23
2019-02-19T10:20:43.019Z,1009.26
2019-02-19T10:21:43.027Z,1009.22
2019-02-19T10:22:43.053Z,1009.24
2019-02-19T10:23:43.009Z,1009.31
2019-02-19T10:24:42.994Z,1009.28
2019-02-19T10:25:44.637Z,1009.28
2019-02-19T10:26:42.990Z,1009.29
2019-02-19T10:27:42.996Z,1009.25
2019-02-19T10:28:43.249Z,1009.23
2019-02-19T10:29:42.965Z,1009.23
2019-02-19T10:30:42.975Z,1009.25
2019-02-19T10:31:42.968Z,1009.25
2019-02-19T10:32:42.945Z,1009.23
2019-02-19T10:33:42.963Z,1009.26
2019-02-19T10:34:42.925Z,1009.26
2019-02-19T10:35:42.942Z,1009.25
2019-02-19T10:36:42.921Z,1009.25
2019-02-19T10:37:42.930Z,1009.23
2019-02-19T10:38:42.908Z,1009.22
2019-02-19T10:39:42.915Z,1009.27
2019-02-19T10:40:42.879Z,1009.25
2019-02-19T10:41:42.885Z,1009.27
2019-02-19T10:42:42.867Z,1009.26
2019-02-19T10:43:42.854Z,1009.30
2019-02-19T10:44:42.856Z,1009.30
2019-02-19T10:45:42.866Z,1009.35
2019-02-19T10:46:42.845Z,1009.39
2019-02-19T10:47:42.826Z,1009.38
2019-02-19T10:48:43.738Z,1009.43
2019-02-19T10:49:42.837Z,1009.41
2019-02-19T10:50:42.813Z,1009.44
2019-02-19T10:51:42.791Z,1009.41
2019-02-19T10:52:42.789Z,1009.40
2019-02-19T10:53:42.781Z,1009.35
2019-02-19T10:54:42.794Z,1009.36
2019-02-19T10:55:42.776Z,1009.39
2019-02-19T10:56:42.767Z,1009.41
2019-02-19T10:57:42.748Z,1009.48
2019-02-19T10:58:42.745Z,1009.50
2019-02-19T10:59:42.752Z,1009.52
2019-02-19T11:00:42.732Z,1009.55
2019-02-19T11:01:42.716Z,1009.58
2019-02-19T11:02:42.711Z,1009.60
2019-02-19T11:03:42.736Z,1009.56
2019-02-19T11:04:42.728Z,1009.52
2019-02-19T11:05:42.698Z,1009.49
2019-02-19T11:06:42.684Z,1009.52
2019-02-19T11:07:42.686Z,1009.55
2019-02-19T11:08:42.667Z,1009.50
2019-02-19T11:09:42.686Z,1009.52
2019-02-19T11:10:42.658Z,1009.49
2019-02-19T11:11:42.680Z,1009.49
2019-02-19T11:12:42.677Z,1009.47
2019-02-19T11:13:42.650Z,1009.45
2019-02-19T11:14:42.673Z,1009.47
2019-02-19T11:15:42.613Z,1009.46
2019-02-19T11:16:42.618Z,1009.43
2019-02-19T11:17:42.634Z,1009.44
2019-02-19T11:18:42.605Z,1009.41
2019-02-19T11:19:42.626Z,1009.46
2019-02-19T11:20:42.615Z,1009.43
2019-02-19T11:21:42.573Z,1009.43
2019-02-19T11:22:42.620Z,1009.48
2019-02-19T11:23:42.563Z,1009.42
2019-02-19T11:24:42.550Z,1009.44
2019-02-19T11:25:42.575Z,1009.47
2019-02-19T11:26:42.553Z,1009.47
2019-02-19T11:27:42.558Z,1009.48
2019-02-19T11:28:42.520Z,1009.48
2019-02-19T11:29:42.526Z,1009.46
2019-02-19T11:30:42.507Z,1009.38
2019-02-19T11:31:42.525Z,1009.40
2019-02-19T11:32:42.525Z,1009.44
2019-02-19T11:33:42.490Z,1009.46
2019-02-19T11:34:42.476Z,1009.46
2019-02-19T11:35:51.127Z,1009.47
2019-02-19T11:37:46.981Z,1009.46
2019-02-19T11:38:55.590Z,1009.40
2019-02-19T11:40:51.571Z,1009.43
2019-02-19T11:41:51.431Z,1009.41
2019-02-19T11:42:51.409Z,1009.37
2019-02-19T11:43:51.450Z,1009.38
2019-02-19T11:44:51.384Z,1009.35
2019-02-19T11:45:51.377Z,1009.32
2019-02-19T11:46:51.377Z,1009.33
2019-02-19T11:47:51.375Z,1009.33
2019-02-19T11:48:51.361Z,1009.32
2019-02-19T11:49:51.352Z,1009.34
2019-02-19T11:50:51.559Z,1009.34
2019-02-19T11:51:51.348Z,1009.37
2019-02-19T11:52:51.328Z,1009.35
2019-02-19T11:53:51.342Z,1009.36
2019-02-19T11:54:51.336Z,1009.33
2019-02-19T11:55:51.333Z,1009.28
2019-02-19T11:56:51.326Z,1009.32
2019-02-19T11:57:51.302Z,1009.32
2019-02-19T11:58:51.304Z,1009.29
2019-02-19T11:59:51.302Z,1009.30
2019-02-19T12:00:51.289Z,1009.27
2019-02-19T12:01:51.279Z,1009.25
2019-02-19T12:02:51.275Z,1009.27
2019-02-19T12:03:51.251Z,1009.22
2019-02-19T12:04:51.249Z,1009.24
2019-02-19T12:05:51.247Z,1009.22
2019-02-19T12:06:51.257Z,1009.23
2019-02-19T12:07:51.219Z,1009.21
2019-02-19T12:08:51.305Z,1009.20
2019-02-19T12:09:51.214Z,1009.17
2019-02-19T12:10:51.201Z,1009.22
2019-02-19T12:11:51.207Z,1009.22
2019-02-19T12:12:51.206Z,1009.21
2019-02-19T12:13:51.215Z,1009.24
2019-02-19T12:14:51.202Z,1009.24
2019-02-19T12:15:51.179Z,1009.23
2019-02-19T12:16:51.157Z,1009.31
2019-02-19T12:17:51.149Z,1009.30
2019-02-19T12:18:51.163Z,1009.31
2019-02-19T12:19:51.136Z,1009.30
2019-02-19T12:20:51.855Z,1009.31
2019-02-19T12:21:51.114Z,1009.30
2019-02-19T12:22:51.112Z,1009.28
2019-02-19T12:23:51.113Z,1009.29
2019-02-19T12:24:51.136Z,1009.28
2019-02-19T12:25:51.089Z,1009.23
2019-02-19T12:26:51.091Z,1009.28
2019-02-19T12:27:51.127Z,1009.27
2019-02-19T12:28:51.094Z,1009.28